Flight Track Log - Related Links

Times and Time Zones

All times are in EDT time to prevent confusion due to time zone crossing. See the AWE1494 flight status page for this flight to view local times or setup timezone preferences in your user account.

Time Position Orientation Groundspeed Altitude Reporting Facility
EDT Latitude Longitude Course Direction KTS MPH feet Rate Location/Type
Mon 12:14:23 PM 35.1886 -80.9358 72° East 157 181 1,700  Level Atlanta Center
Mon 12:15:36 PM 35.1231 -80.9003 156° South 248 285 3,600 2,000 Climbing Atlanta Center
Mon 12:16:00 PM 35.1755 -80.5830 29° Northeast  Level FlightAware Approximate
Mon 12:16:32 PM 35.0922 -80.8328 119° Southeast 279 321 6,000  Level Atlanta Center
Mon 12:17:00 PM 35.2919 -80.5011 30° Northeast  Level FlightAware Approximate
Mon 12:17:32 PM 35.1256 -80.7503 64° Northeast 271 312 8,600  Level Atlanta Center
Mon 12:18:00 PM 35.3565 -80.3789 72° East  Level FlightAware Approximate
Mon 12:18:32 PM 35.1631 -80.6750 59° Northeast 295 339 10,300  Level Atlanta Center
Mon 12:19:00 PM 35.3977 -80.2223 72° East  Level FlightAware Approximate
Mon 12:20:17 PM 35.2542 -80.4958 58° Northeast 348 400 13,300  Level Washington Center
Mon 12:21:18 PM 35.3108 -80.3875 57° Northeast 365 420 16,000 2,281 Climbing Washington Center
Mon 12:22:18 PM 35.3675 -80.2761 58° Northeast 372 428 17,900 2,034 Climbing Washington Center
Mon 12:23:16 PM 35.4242 -80.1572 60° Northeast 378 435 20,000 1,866 Climbing Washington Center
Mon 12:24:17 PM 35.4644 -80.0269 69° East 397 457 21,600 1,672 Climbing Washington Center
Mon 12:25:18 PM 35.4969 -79.8858 74° East 411 473 23,400 1,686 Climbing Washington Center
Mon 12:26:18 PM 35.5353 -79.7450 71° East 422 486 25,000 814 Climbing Washington Center
Mon 12:27:16 PM 35.5714 -79.6036 73° East 427 491 25,000 555 Level Washington Center
Mon 12:28:17 PM 35.6322 -79.4661 61° Northeast 442 509 26,100 1,438 Climbing Washington Center
Mon 12:29:17 PM 35.6928 -79.3336 61° Northeast 441 507 27,900 2,132 Climbing Washington Center
Mon 12:30:18 PM 35.7508 -79.2058 61° Northeast 441 507 30,400 1,966 Climbing Washington Center
Mon 12:31:16 PM 35.8089 -79.0778 61° Northeast 424 488 31,800 1,119 Climbing Washington Center
Mon 12:32:16 PM 35.8669 -78.9497 61° Northeast 424 488 32,600 590 Climbing Washington Center
Mon 12:33:18 PM 35.9247 -78.8214 61° Northeast 424 488 33,000 200 Climbing Washington Center
Mon 12:34:16 PM 35.9844 -78.6903 61° Northeast 431 496 33,000  Level Washington Center
Mon 12:35:16 PM 36.0442 -78.5564 61° Northeast 431 496 33,000  Level Washington Center
Mon 12:36:17 PM 36.1039 -78.4225 61° Northeast 431 496 33,000  Level Washington Center
Mon 12:37:18 PM 36.1611 -78.2908 62° Northeast 431 496 33,000  Level Washington Center
Mon 12:38:16 PM 36.2206 -78.1564 61° Northeast 431 496 33,000  Level Washington Center
Mon 12:39:16 PM 36.2775 -78.0242 62° Northeast 431 496 33,000  Level Washington Center
Mon 12:40:17 PM 36.3383 -77.8947 60° Northeast 431 496 33,000  Level Washington Center
Mon 12:41:18 PM 36.3953 -77.7622 62° Northeast 431 496 33,000  Level Washington Center
Mon 12:42:18 PM 36.4431 -77.6419 64° Northeast 431 496 33,000  Level Washington Center
Mon 12:43:16 PM 36.4997 -77.5092 62° Northeast 425 489 33,000  Level Washington Center
Mon 12:44:17 PM 36.5581 -77.3736 62° Northeast 431 496 33,000  Level Washington Center
Mon 12:45:18 PM 36.6206 -77.2275 62° Northeast 431 496 33,000  Level Washington Center
Mon 12:46:18 PM 36.6786 -77.0967 61° Northeast 431 496 33,000  Level Washington Center
Mon 12:47:16 PM 36.7531 -76.9789 52° Northeast 431 496 33,000 -958 Level Washington Center
Mon 12:48:17 PM 36.8458 -76.8922 37° Northeast 413 475 31,100 -984 Descending Washington Center
Mon 12:49:18 PM 36.9428 -76.8056 36° Northeast 413 475 31,000 -50 Descending Washington Center
Mon 12:50:18 PM 37.0394 -76.7186 36° Northeast 423 487 31,000 -454 Level Washington Center
Mon 12:51:17 PM 37.1364 -76.6289 36° Northeast 423 487 30,100 -1,000 Descending Washington Center
Mon 12:52:18 PM 37.2372 -76.5389 35° Northeast 434 499 29,000 -793 Descending Washington Center
Mon 12:53:18 PM 37.3275 -76.4564 36° Northeast 439 505 28,500 -1,017 Descending Washington Center
Mon 12:54:16 PM 37.4242 -76.3658 37° Northeast 439 505 27,000 -763 Descending Washington Center
Mon 12:55:16 PM 37.5247 -76.2753 36° Northeast 434 499 27,000  Level Washington Center
Mon 12:56:16 PM 37.6211 -76.1869 36° Northeast 434 499 27,000  Level Washington Center
Mon 12:57:17 PM 37.7300 -76.0933 34° Northeast 434 499 27,000  Level Washington Center
Mon 12:58:17 PM 37.8181 -76.0044 39° Northeast 434 499 27,000  Level Washington Center
Mon 12:59:16 PM 37.9183 -75.9128 36° Northeast 444 511 27,000  Level Washington Center
Mon 01:00:17 PM 38.0292 -75.8186 34° Northeast 444 511 27,000  Level Washington Center
Mon 01:01:17 PM 38.1167 -75.7236 40° Northeast 444 511 27,000  Level Washington Center
Mon 01:02:15 PM 38.2147 -75.6314 36° Northeast 444 511 27,000  Level Washington Center
Mon 01:03:16 PM 38.3253 -75.5256 37° Northeast 444 511 27,000  Level Washington Center
Mon 01:04:16 PM 38.4358 -75.4697 22° Northeast 435 501 27,000  Level Washington Center
Mon 01:05:17 PM 38.5503 -75.4272 16° North 425 489 27,000  Level Washington Center
Mon 01:06:17 PM 38.6628 -75.3631 24° Northeast 425 489 27,000  Level Washington Center
Mon 01:07:18 PM 38.7689 -75.2881 29° Northeast 425 489 27,000  Level Washington Center
Mon 01:08:16 PM 38.8814 -75.2531 14° North 425 489 27,000  Level Washington Center
Mon 01:09:16 PM 38.9939 -75.2178 14° North 415 478 27,000  Level Washington Center
Mon 01:10:17 PM 39.1083 -75.1769 15° North 415 478 27,000  Level Washington Center
Mon 01:11:18 PM 39.2208 -75.1281 19° North 415 478 27,000  Level Washington Center
Mon 01:12:18 PM 39.3183 -75.0336 37° Northeast 415 478 27,000  Level Washington Center
Mon 01:13:16 PM 39.4200 -74.9389 36° Northeast 436 502 27,000  Level Washington Center
Mon 01:14:16 PM 39.5175 -74.8464 36° Northeast 436 502 27,000  Level Washington Center
Mon 01:15:50 PM 39.6728 -74.7033 35° Northeast 460 529 27,000  Level New York Center
Mon 01:16:51 PM 39.7631 -74.6192 36° Northeast 455 524 27,000  Level New York Center
Mon 01:17:51 PM 39.8706 -74.5169 36° Northeast 444 511 27,000  Level New York Center
Mon 01:18:48 PM 39.9717 -74.4219 36° Northeast 444 511 27,000  Level New York Center
Mon 01:19:50 PM 40.0761 -74.3436 30° Northeast 439 505 27,000  Level New York Center
Mon 01:20:49 PM 40.1847 -74.2731 26° Northeast 434 499 27,000  Level New York Center
Mon 01:21:50 PM 40.2908 -74.2022 27° Northeast 428 493 27,000  Level New York Center
Mon 01:22:50 PM 40.3992 -74.1314 26° Northeast 428 493 27,000 -151 Level New York Center
Mon 01:23:49 PM 40.5075 -74.0575 27° Northeast 428 493 26,700 -978 Descending New York Center
Mon 01:25:54 PM 40.7278 -73.9108 27° Northeast 433 498 24,000 -871 Descending Boston Center
Mon 01:26:55 PM 40.8269 -73.8225 34° Northeast 433 498 24,000 -50 Level Boston Center
Mon 01:27:55 PM 40.9178 -73.7092 43° Northeast 428 493 23,900 -300 Descending Boston Center
Mon 01:28:55 PM 41.0086 -73.6008 42° Northeast 434 499 23,400 -550 Descending Boston Center
Mon 01:29:55 PM 41.0972 -73.4894 43° Northeast 434 499 22,800 -850 Descending Boston Center
Mon 01:30:55 PM 41.1836 -73.3833 43° Northeast 428 493 21,700 -1,000 Descending Boston Center
Mon 01:31:55 PM 41.2697 -73.2769 43° Northeast 423 487 20,800 -1,000 Descending Boston Center
Mon 01:32:55 PM 41.3703 -73.2144 25° Northeast 416 479 19,700 -900 Descending Boston Center
Mon 01:33:55 PM 41.4742 -73.2547 344° North 346 398 19,000 -350 Descending Boston Center
Mon 01:34:55 PM 41.5572 -73.2917 342° North 346 398 19,000  Level Boston Center
Mon 01:35:55 PM 41.6592 -73.3347 342° North 351 404 19,000  Level Boston Center
Mon 01:36:55 PM 41.7506 -73.3722 343° North 345 397 19,000 -800 Level Boston Center
Mon 01:37:55 PM 41.8314 -73.4097 341° North 340 391 17,400 -2,050 Descending Boston Center
Mon 01:38:55 PM 41.9333 -73.4503 344° North 347 399 14,900 -2,269 Descending Boston Center
Mon 01:39:54 PM 42.0183 -73.4881 342° North 331 381 12,900 -2,022 Descending Boston Center
Mon 01:40:24 PM 42.0619 -73.5083 341° North 312 359 11,900 -1,770 Descending Boston Center
Mon 01:40:55 PM 42.0950 -73.5228 342° North 318 366 11,100 -885 Descending Boston Center
Mon 01:41:25 PM 42.1472 -73.5208 North 307 353 11,000 -102 Descending Boston Center
Mon 01:41:54 PM 42.1806 -73.5158 North 312 359 11,000  Level Boston Center
Mon 01:42:25 PM 42.2308 -73.5083 North 311 358 11,000 -393 Level Boston Center
Mon 01:42:55 PM 42.2642 -73.5061 North 306 352 10,600 -2,127 Descending Boston Center
Mon 01:43:44 PM 42.3328 -73.5186 352° North 275 316 8,200 -2,167 Descending Boston Center
Mon 01:44:07 PM 42.3475 -73.5161 North 291 335 8,000 -1,869 Descending Boston Center
Mon 01:44:45 PM 42.4161 -73.5342 349° North 275 316 6,300 -2,100 Descending Boston Center
Mon 01:45:07 PM 42.4408 -73.5372 355° North 276 318 5,900 -1,315 Descending Boston Center
Mon 01:45:58 PM 42.5014 -73.5497 351° North 268 308 4,700 -1,314 Descending Boston Center
Mon 01:46:52 PM 42.5636 -73.5789 341° North 263 303 3,600 -1,043 Descending Boston Center
Mon 01:47:07 PM 42.5800 -73.5878 338° Northwest 270 311 3,500 -109 Descending Boston Center
Mon 01:47:47 PM 42.6217 -73.6081 340° North 248 285 3,500  Level Boston Center
Mon 01:48:07 PM 42.6361 -73.6169 336° Northwest 249 287 3,500 -327 Level Boston Center
Mon 01:48:42 PM 42.6775 -73.6375 340° North 240 276 3,200 -500 Descending Boston Center
Mon 01:49:07 PM 42.7044 -73.6494 342° North 237 273 3,000 -590 Descending Boston Center
Mon 01:49:43 PM 42.7417 -73.6697 338° Northwest 228 262 2,600 -1,000 Descending Boston Center
Mon 01:50:07 PM 42.7667 -73.6789 345° North 232 267 2,000 -545 Descending Boston Center
Mon 01:50:49 PM 42.8061 -73.6994 339° North 207 238 2,000  Level Boston Center
Mon 01:51:07 PM 42.8206 -73.7025 351° North 226 260 2,000  Level Boston Center

Login

Don't have an account? Register now (free) for customized features, flight alerts, and more!